sensor_id;sensor_type;location;lat;lon;timestamp;P1;durP1;ratioP1;P2;durP2;ratioP2
6300;SDS011;3183;51.010;6.898;2023-04-24T00:01:25;2.33;;;1.00;;
6300;SDS011;3183;51.010;6.898;2023-04-24T00:03:54;0.95;;;0.85;;
6300;SDS011;3183;51.010;6.898;2023-04-24T00:06:24;1.50;;;0.93;;
6300;SDS011;3183;51.010;6.898;2023-04-24T00:08:58;4.80;;;1.57;;
6300;SDS011;3183;51.010;6.898;2023-04-24T00:11:25;0.90;;;0.80;;
6300;SDS011;3183;51.010;6.898;2023-04-24T00:13:52;2.65;;;0.90;;
6300;SDS011;3183;51.010;6.898;2023-04-24T00:16:19;2.03;;;0.80;;
6300;SDS011;3183;51.010;6.898;2023-04-24T00:18:48;2.50;;;0.70;;
6300;SDS011;3183;51.010;6.898;2023-04-24T00:21:17;1.57;;;1.40;;
6300;SDS011;3183;51.010;6.898;2023-04-24T00:23:45;0.80;;;0.60;;
6300;SDS011;3183;51.010;6.898;2023-04-24T00:26:12;1.17;;;1.07;;
6300;SDS011;3183;51.010;6.898;2023-04-24T00:28:39;1.30;;;0.90;;
6300;SDS011;3183;51.010;6.898;2023-04-24T00:31:07;1.50;;;1.17;;
6300;SDS011;3183;51.010;6.898;2023-04-24T00:33:34;4.90;;;0.90;;
6300;SDS011;3183;51.010;6.898;2023-04-24T00:36:02;7.40;;;1.83;;
6300;SDS011;3183;51.010;6.898;2023-04-24T00:38:29;0.80;;;0.80;;
6300;SDS011;3183;51.010;6.898;2023-04-24T00:40:56;1.57;;;1.03;;
6300;SDS011;3183;51.010;6.898;2023-04-24T00:43:24;2.37;;;1.23;;
6300;SDS011;3183;51.010;6.898;2023-04-24T00:45:51;2.60;;;1.13;;
6300;SDS011;3183;51.010;6.898;2023-04-24T00:48:18;6.73;;;0.90;;
6300;SDS011;3183;51.010;6.898;2023-04-24T00:50:46;1.20;;;0.90;;
6300;SDS011;3183;51.010;6.898;2023-04-24T00:53:15;1.37;;;0.80;;
6300;SDS011;3183;51.010;6.898;2023-04-24T00:55:42;1.10;;;1.00;;
6300;SDS011;3183;51.010;6.898;2023-04-24T00:58:09;0.90;;;0.80;;
6300;SDS011;3183;51.010;6.898;2023-04-24T01:00:36;1.33;;;1.23;;
6300;SDS011;3183;51.010;6.898;2023-04-24T01:03:04;2.25;;;1.13;;
6300;SDS011;3183;51.010;6.898;2023-04-24T01:05:32;4.40;;;1.27;;
6300;SDS011;3183;51.010;6.898;2023-04-24T01:07:59;1.50;;;1.10;;
6300;SDS011;3183;51.010;6.898;2023-04-24T01:10:28;4.03;;;1.40;;
6300;SDS011;3183;51.010;6.898;2023-04-24T01:12:56;1.33;;;0.93;;
6300;SDS011;3183;51.010;6.898;2023-04-24T01:15:23;2.70;;;1.30;;
6300;SDS011;3183;51.010;6.898;2023-04-24T01:17:50;2.90;;;1.23;;
6300;SDS011;3183;51.010;6.898;2023-04-24T01:20:17;6.73;;;2.30;;
6300;SDS011;3183;51.010;6.898;2023-04-24T01:22:47;6.18;;;1.63;;
6300;SDS011;3183;51.010;6.898;2023-04-24T01:25:14;2.00;;;1.83;;
6300;SDS011;3183;51.010;6.898;2023-04-24T01:27:41;1.40;;;1.30;;
6300;SDS011;3183;51.010;6.898;2023-04-24T01:30:09;2.03;;;1.53;;
6300;SDS011;3183;51.010;6.898;2023-04-24T01:32:36;2.95;;;1.85;;
6300;SDS011;3183;51.010;6.898;2023-04-24T01:35:04;1.43;;;1.30;;
6300;SDS011;3183;51.010;6.898;2023-04-24T01:37:31;2.83;;;1.83;;
6300;SDS011;3183;51.010;6.898;2023-04-24T01:40:00;2.33;;;2.07;;
6300;SDS011;3183;51.010;6.898;2023-04-24T01:42:27;2.63;;;2.40;;
6300;SDS011;3183;51.010;6.898;2023-04-24T01:44:54;4.07;;;2.37;;
6300;SDS011;3183;51.010;6.898;2023-04-24T01:47:21;2.43;;;2.23;;
6300;SDS011;3183;51.010;6.898;2023-04-24T01:49:49;5.50;;;2.50;;
6300;SDS011;3183;51.010;6.898;2023-04-24T01:52:17;4.00;;;2.87;;
6300;SDS011;3183;51.010;6.898;2023-04-24T01:54:44;6.00;;;2.87;;
6300;SDS011;3183;51.010;6.898;2023-04-24T01:57:13;5.40;;;2.80;;
6300;SDS011;3183;51.010;6.898;2023-04-24T01:59:41;6.03;;;2.80;;
6300;SDS011;3183;51.010;6.898;2023-04-24T02:02:08;5.97;;;2.87;;
6300;SDS011;3183;51.010;6.898;2023-04-24T02:04:35;5.40;;;2.70;;
6300;SDS011;3183;51.010;6.898;2023-04-24T02:07:02;5.10;;;3.50;;
6300;SDS011;3183;51.010;6.898;2023-04-24T02:09:30;3.90;;;3.00;;
6300;SDS011;3183;51.010;6.898;2023-04-24T02:11:57;9.47;;;4.27;;
6300;SDS011;3183;51.010;6.898;2023-04-24T02:14:25;8.73;;;4.63;;
6300;SDS011;3183;51.010;6.898;2023-04-24T02:16:52;6.10;;;4.00;;
6300;SDS011;3183;51.010;6.898;2023-04-24T02:19:19;6.75;;;4.40;;
6300;SDS011;3183;51.010;6.898;2023-04-24T02:21:46;8.07;;;4.87;;
6300;SDS011;3183;51.010;6.898;2023-04-24T02:24:14;8.03;;;4.60;;
6300;SDS011;3183;51.010;6.898;2023-04-24T02:26:41;6.70;;;3.73;;
6300;SDS011;3183;51.010;6.898;2023-04-24T02:29:08;7.00;;;4.47;;
6300;SDS011;3183;51.010;6.898;2023-04-24T02:31:37;7.85;;;4.90;;
6300;SDS011;3183;51.010;6.898;2023-04-24T02:34:04;8.93;;;4.90;;
6300;SDS011;3183;51.010;6.898;2023-04-24T02:36:31;9.05;;;5.18;;
6300;SDS011;3183;51.010;6.898;2023-04-24T02:38:58;9.30;;;4.70;;
6300;SDS011;3183;51.010;6.898;2023-04-24T02:41:26;8.45;;;5.18;;
6300;SDS011;3183;51.010;6.898;2023-04-24T02:43:56;6.53;;;4.80;;
6300;SDS011;3183;51.010;6.898;2023-04-24T02:46:23;8.17;;;4.60;;
6300;SDS011;3183;51.010;6.898;2023-04-24T02:48:52;8.93;;;4.87;;
6300;SDS011;3183;51.010;6.898;2023-04-24T02:51:19;8.43;;;5.23;;
6300;SDS011;3183;51.010;6.898;2023-04-24T02:53:46;13.90;;;4.97;;
6300;SDS011;3183;51.010;6.898;2023-04-24T02:56:13;7.97;;;4.40;;
6300;SDS011;3183;51.010;6.898;2023-04-24T02:58:40;7.50;;;5.40;;
6300;SDS011;3183;51.010;6.898;2023-04-24T03:01:08;7.40;;;4.47;;
6300;SDS011;3183;51.010;6.898;2023-04-24T03:03:35;9.63;;;4.77;;
6300;SDS011;3183;51.010;6.898;2023-04-24T03:06:04;8.40;;;5.20;;
6300;SDS011;3183;51.010;6.898;2023-04-24T03:08:33;10.27;;;5.90;;
6300;SDS011;3183;51.010;6.898;2023-04-24T03:11:00;7.97;;;4.57;;
6300;SDS011;3183;51.010;6.898;2023-04-24T03:13:27;8.10;;;4.40;;
6300;SDS011;3183;51.010;6.898;2023-04-24T03:15:54;11.00;;;5.00;;
6300;SDS011;3183;51.010;6.898;2023-04-24T03:18:21;11.50;;;5.13;;
6300;SDS011;3183;51.010;6.898;2023-04-24T03:20:48;10.90;;;5.60;;
6300;SDS011;3183;51.010;6.898;2023-04-24T03:23:17;11.37;;;6.10;;
6300;SDS011;3183;51.010;6.898;2023-04-24T03:25:44;10.03;;;5.93;;
6300;SDS011;3183;51.010;6.898;2023-04-24T03:28:13;20.30;;;5.30;;
6300;SDS011;3183;51.010;6.898;2023-04-24T03:30:40;14.73;;;5.63;;
6300;SDS011;3183;51.010;6.898;2023-04-24T03:33:07;9.30;;;5.90;;
6300;SDS011;3183;51.010;6.898;2023-04-24T03:35:34;8.75;;;5.88;;
6300;SDS011;3183;51.010;6.898;2023-04-24T03:38:02;8.57;;;6.10;;
6300;SDS011;3183;51.010;6.898;2023-04-24T03:40:31;11.23;;;6.67;;
6300;SDS011;3183;51.010;6.898;2023-04-24T03:42:59;16.77;;;6.23;;
6300;SDS011;3183;51.010;6.898;2023-04-24T03:45:26;13.83;;;6.70;;
6300;SDS011;3183;51.010;6.898;2023-04-24T03:47:53;10.98;;;5.65;;
6300;SDS011;3183;51.010;6.898;2023-04-24T03:50:21;9.00;;;5.87;;
6300;SDS011;3183;51.010;6.898;2023-04-24T03:52:48;12.93;;;6.70;;
6300;SDS011;3183;51.010;6.898;2023-04-24T03:55:15;12.53;;;5.83;;
6300;SDS011;3183;51.010;6.898;2023-04-24T03:57:44;12.80;;;6.70;;
6300;SDS011;3183;51.010;6.898;2023-04-24T04:00:11;10.03;;;6.70;;
6300;SDS011;3183;51.010;6.898;2023-04-24T04:02:39;13.27;;;5.23;;
6300;SDS011;3183;51.010;6.898;2023-04-24T04:05:06;10.07;;;5.40;;
6300;SDS011;3183;51.010;6.898;2023-04-24T04:07:34;16.43;;;5.60;;
6300;SDS011;3183;51.010;6.898;2023-04-24T04:10:01;12.23;;;5.80;;
6300;SDS011;3183;51.010;6.898;2023-04-24T04:12:28;13.00;;;5.53;;
6300;SDS011;3183;51.010;6.898;2023-04-24T04:14:56;11.30;;;6.40;;
6300;SDS011;3183;51.010;6.898;2023-04-24T04:17:23;9.13;;;5.50;;
6300;SDS011;3183;51.010;6.898;2023-04-24T04:19:51;10.60;;;6.40;;
6300;SDS011;3183;51.010;6.898;2023-04-24T04:22:18;7.50;;;5.15;;
6300;SDS011;3183;51.010;6.898;2023-04-24T04:24:45;11.07;;;5.20;;
6300;SDS011;3183;51.010;6.898;2023-04-24T04:27:12;10.55;;;5.07;;
6300;SDS011;3183;51.010;6.898;2023-04-24T04:29:39;8.30;;;5.10;;
6300;SDS011;3183;51.010;6.898;2023-04-24T04:32:08;6.47;;;5.10;;
6300;SDS011;3183;51.010;6.898;2023-04-24T04:34:35;11.02;;;4.88;;
6300;SDS011;3183;51.010;6.898;2023-04-24T04:37:04;10.47;;;4.80;;
6300;SDS011;3183;51.010;6.898;2023-04-24T04:39:31;7.07;;;4.67;;
6300;SDS011;3183;51.010;6.898;2023-04-24T04:41:59;8.50;;;4.73;;
6300;SDS011;3183;51.010;6.898;2023-04-24T04:44:26;13.60;;;4.77;;
6300;SDS011;3183;51.010;6.898;2023-04-24T04:46:53;7.13;;;4.38;;
6300;SDS011;3183;51.010;6.898;2023-04-24T04:49:22;5.03;;;4.23;;
6300;SDS011;3183;51.010;6.898;2023-04-24T04:51:50;12.07;;;5.40;;
6300;SDS011;3183;51.010;6.898;2023-04-24T04:54:18;6.80;;;4.70;;
6300;SDS011;3183;51.010;6.898;2023-04-24T04:56:45;11.10;;;3.90;;
6300;SDS011;3183;51.010;6.898;2023-04-24T04:59:12;7.30;;;4.30;;
6300;SDS011;3183;51.010;6.898;2023-04-24T05:01:39;5.80;;;4.40;;
6300;SDS011;3183;51.010;6.898;2023-04-24T05:04:06;7.00;;;4.47;;
6300;SDS011;3183;51.010;6.898;2023-04-24T05:06:34;6.57;;;4.38;;
6300;SDS011;3183;51.010;6.898;2023-04-24T05:09:02;7.53;;;4.60;;
6300;SDS011;3183;51.010;6.898;2023-04-24T05:11:29;9.60;;;4.73;;
6300;SDS011;3183;51.010;6.898;2023-04-24T05:13:56;6.33;;;3.73;;
6300;SDS011;3183;51.010;6.898;2023-04-24T05:16:23;10.10;;;5.33;;
6300;SDS011;3183;51.010;6.898;2023-04-24T05:18:50;7.90;;;4.37;;
6300;SDS011;3183;51.010;6.898;2023-04-24T05:21:17;9.10;;;4.10;;
6300;SDS011;3183;51.010;6.898;2023-04-24T05:23:46;7.47;;;3.78;;
6300;SDS011;3183;51.010;6.898;2023-04-24T05:26:13;10.03;;;4.20;;
6300;SDS011;3183;51.010;6.898;2023-04-24T05:28:45;6.70;;;3.97;;
6300;SDS011;3183;51.010;6.898;2023-04-24T05:31:12;5.47;;;3.80;;
6300;SDS011;3183;51.010;6.898;2023-04-24T05:33:39;7.63;;;4.87;;
6300;SDS011;3183;51.010;6.898;2023-04-24T05:36:06;7.00;;;4.43;;
6300;SDS011;3183;51.010;6.898;2023-04-24T05:38:34;5.90;;;4.63;;
6300;SDS011;3183;51.010;6.898;2023-04-24T05:41:02;6.83;;;4.37;;
6300;SDS011;3183;51.010;6.898;2023-04-24T05:43:29;7.40;;;4.95;;
6300;SDS011;3183;51.010;6.898;2023-04-24T05:45:56;10.47;;;5.47;;
6300;SDS011;3183;51.010;6.898;2023-04-24T05:48:24;8.13;;;4.50;;
6300;SDS011;3183;51.010;6.898;2023-04-24T05:50:51;7.10;;;4.05;;
6300;SDS011;3183;51.010;6.898;2023-04-24T05:53:18;12.10;;;5.43;;
6300;SDS011;3183;51.010;6.898;2023-04-24T05:55:45;6.50;;;5.03;;
6300;SDS011;3183;51.010;6.898;2023-04-24T05:58:14;8.23;;;4.63;;
6300;SDS011;3183;51.010;6.898;2023-04-24T06:00:41;11.57;;;4.50;;
6300;SDS011;3183;51.010;6.898;2023-04-24T06:03:11;7.80;;;4.87;;
6300;SDS011;3183;51.010;6.898;2023-04-24T06:05:38;7.43;;;3.93;;
6300;SDS011;3183;51.010;6.898;2023-04-24T06:08:05;10.93;;;3.57;;
6300;SDS011;3183;51.010;6.898;2023-04-24T06:10:32;5.30;;;3.40;;
6300;SDS011;3183;51.010;6.898;2023-04-24T06:12:59;9.27;;;3.57;;
6300;SDS011;3183;51.010;6.898;2023-04-24T06:15:29;6.23;;;2.97;;
6300;SDS011;3183;51.010;6.898;2023-04-24T06:17:56;5.77;;;2.87;;
6300;SDS011;3183;51.010;6.898;2023-04-24T06:20:23;3.90;;;2.80;;
6300;SDS011;3183;51.010;6.898;2023-04-24T06:22:50;6.03;;;2.70;;
6300;SDS011;3183;51.010;6.898;2023-04-24T06:25:18;7.50;;;2.13;;
6300;SDS011;3183;51.010;6.898;2023-04-24T06:27:46;4.57;;;2.22;;
6300;SDS011;3183;51.010;6.898;2023-04-24T06:30:13;4.10;;;2.67;;
6300;SDS011;3183;51.010;6.898;2023-04-24T06:32:41;4.07;;;2.40;;
6300;SDS011;3183;51.010;6.898;2023-04-24T06:35:08;5.50;;;2.20;;
6300;SDS011;3183;51.010;6.898;2023-04-24T06:37:37;3.00;;;2.23;;
6300;SDS011;3183;51.010;6.898;2023-04-24T06:40:04;6.93;;;2.10;;
6300;SDS011;3183;51.010;6.898;2023-04-24T06:42:32;3.37;;;1.50;;
6300;SDS011;3183;51.010;6.898;2023-04-24T06:45:00;2.00;;;1.57;;
6300;SDS011;3183;51.010;6.898;2023-04-24T06:47:27;2.33;;;1.80;;
6300;SDS011;3183;51.010;6.898;2023-04-24T06:49:56;1.83;;;1.60;;
6300;SDS011;3183;51.010;6.898;2023-04-24T06:52:23;2.70;;;2.00;;
6300;SDS011;3183;51.010;6.898;2023-04-24T06:54:50;3.17;;;2.03;;
6300;SDS011;3183;51.010;6.898;2023-04-24T06:57:18;4.43;;;1.97;;
6300;SDS011;3183;51.010;6.898;2023-04-24T06:59:46;3.63;;;2.47;;
6300;SDS011;3183;51.010;6.898;2023-04-24T07:02:13;2.83;;;2.30;;
6300;SDS011;3183;51.010;6.898;2023-04-24T07:04:40;5.00;;;2.20;;
6300;SDS011;3183;51.010;6.898;2023-04-24T07:07:08;3.80;;;1.93;;
6300;SDS011;3183;51.010;6.898;2023-04-24T07:09:38;5.53;;;2.10;;
6300;SDS011;3183;51.010;6.898;2023-04-24T07:12:06;2.00;;;1.80;;
6300;SDS011;3183;51.010;6.898;2023-04-24T07:14:33;3.40;;;1.63;;
6300;SDS011;3183;51.010;6.898;2023-04-24T07:17:07;3.07;;;2.43;;
6300;SDS011;3183;51.010;6.898;2023-04-24T07:19:34;3.13;;;2.30;;
6300;SDS011;3183;51.010;6.898;2023-04-24T07:22:02;10.97;;;3.10;;
6300;SDS011;3183;51.010;6.898;2023-04-24T07:24:30;3.03;;;2.65;;
6300;SDS011;3183;51.010;6.898;2023-04-24T07:36:46;2.77;;;2.30;;
6300;SDS011;3183;51.010;6.898;2023-04-24T07:39:14;2.40;;;1.87;;
6300;SDS011;3183;51.010;6.898;2023-04-24T07:41:42;5.20;;;2.03;;
6300;SDS011;3183;51.010;6.898;2023-04-24T07:44:09;2.20;;;1.93;;
6300;SDS011;3183;51.010;6.898;2023-04-24T07:46:36;5.07;;;1.90;;
6300;SDS011;3183;51.010;6.898;2023-04-24T07:49:04;3.73;;;2.47;;
6300;SDS011;3183;51.010;6.898;2023-04-24T07:51:31;2.60;;;1.40;;
6300;SDS011;3183;51.010;6.898;2023-04-24T07:54:03;1.97;;;1.50;;
6300;SDS011;3183;51.010;6.898;2023-04-24T07:56:30;3.70;;;2.08;;
6300;SDS011;3183;51.010;6.898;2023-04-24T07:58:59;2.33;;;1.70;;
6300;SDS011;3183;51.010;6.898;2023-04-24T08:01:27;2.50;;;1.43;;
6300;SDS011;3183;51.010;6.898;2023-04-24T08:03:54;3.33;;;1.50;;
6300;SDS011;3183;51.010;6.898;2023-04-24T08:06:21;2.10;;;1.58;;
6300;SDS011;3183;51.010;6.898;2023-04-24T08:08:49;1.30;;;1.10;;
6300;SDS011;3183;51.010;6.898;2023-04-24T08:11:16;2.03;;;1.50;;
6300;SDS011;3183;51.010;6.898;2023-04-24T08:13:43;2.60;;;1.63;;
6300;SDS011;3183;51.010;6.898;2023-04-24T08:16:12;1.90;;;1.40;;
6300;SDS011;3183;51.010;6.898;2023-04-24T08:18:39;2.83;;;1.50;;
6300;SDS011;3183;51.010;6.898;2023-04-24T08:21:06;6.60;;;1.87;;
6300;SDS011;3183;51.010;6.898;2023-04-24T08:23:33;2.27;;;1.50;;
6300;SDS011;3183;51.010;6.898;2023-04-24T08:26:01;2.27;;;1.57;;
6300;SDS011;3183;51.010;6.898;2023-04-24T11:44:43;8.90;;;3.13;;
6300;SDS011;3183;51.010;6.898;2023-04-24T11:47:12;9.57;;;4.20;;
6300;SDS011;3183;51.010;6.898;2023-04-24T11:49:39;12.73;;;4.03;;
6300;SDS011;3183;51.010;6.898;2023-04-24T11:52:06;11.52;;;3.38;;
6300;SDS011;3183;51.010;6.898;2023-04-24T11:54:33;15.53;;;3.97;;
6300;SDS011;3183;51.010;6.898;2023-04-24T11:57:03;10.90;;;3.80;;
6300;SDS011;3183;51.010;6.898;2023-04-24T11:59:35;6.38;;;3.83;;
6300;SDS011;3183;51.010;6.898;2023-04-24T12:02:04;6.70;;;3.80;;
6300;SDS011;3183;51.010;6.898;2023-04-24T12:04:38;11.70;;;5.00;;
6300;SDS011;3183;51.010;6.898;2023-04-24T12:07:05;8.30;;;3.40;;
6300;SDS011;3183;51.010;6.898;2023-04-24T12:09:43;8.13;;;3.10;;
6300;SDS011;3183;51.010;6.898;2023-04-24T12:12:11;10.25;;;4.25;;
6300;SDS011;3183;51.010;6.898;2023-04-24T12:14:42;8.00;;;3.57;;
6300;SDS011;3183;51.010;6.898;2023-04-24T12:17:10;6.33;;;3.47;;
6300;SDS011;3183;51.010;6.898;2023-04-24T12:19:37;6.67;;;3.57;;
6300;SDS011;3183;51.010;6.898;2023-04-24T12:22:05;8.50;;;3.77;;
6300;SDS011;3183;51.010;6.898;2023-04-24T12:24:33;11.40;;;3.97;;
6300;SDS011;3183;51.010;6.898;2023-04-24T12:27:00;8.83;;;3.63;;
6300;SDS011;3183;51.010;6.898;2023-04-24T12:29:27;16.30;;;3.70;;
6300;SDS011;3183;51.010;6.898;2023-04-24T12:31:54;11.57;;;3.53;;
6300;SDS011;3183;51.010;6.898;2023-04-24T12:34:23;11.03;;;3.63;;
6300;SDS011;3183;51.010;6.898;2023-04-24T12:36:50;8.40;;;3.45;;
6300;SDS011;3183;51.010;6.898;2023-04-24T12:39:18;8.00;;;3.37;;
6300;SDS011;3183;51.010;6.898;2023-04-24T12:41:50;13.60;;;3.70;;
6300;SDS011;3183;51.010;6.898;2023-04-24T12:44:17;10.53;;;3.40;;
6300;SDS011;3183;51.010;6.898;2023-04-24T12:46:44;7.30;;;3.17;;
6300;SDS011;3183;51.010;6.898;2023-04-24T12:49:11;7.83;;;2.80;;
6300;SDS011;3183;51.010;6.898;2023-04-24T12:51:40;12.13;;;3.57;;
6300;SDS011;3183;51.010;6.898;2023-04-24T12:54:07;9.43;;;2.87;;
6300;SDS011;3183;51.010;6.898;2023-04-24T12:56:35;15.03;;;3.40;;
6300;SDS011;3183;51.010;6.898;2023-04-24T12:59:04;12.63;;;3.40;;
6300;SDS011;3183;51.010;6.898;2023-04-24T13:01:31;8.17;;;3.40;;
6300;SDS011;3183;51.010;6.898;2023-04-24T13:03:59;9.10;;;3.75;;
6300;SDS011;3183;51.010;6.898;2023-04-24T13:06:26;6.85;;;3.20;;
6300;SDS011;3183;51.010;6.898;2023-04-24T13:08:54;10.07;;;3.80;;
6300;SDS011;3183;51.010;6.898;2023-04-24T13:11:22;10.97;;;3.90;;
6300;SDS011;3183;51.010;6.898;2023-04-24T13:13:50;5.00;;;3.27;;
6300;SDS011;3183;51.010;6.898;2023-04-24T13:16:17;11.07;;;3.80;;
6300;SDS011;3183;51.010;6.898;2023-04-24T13:18:44;12.10;;;4.00;;
6300;SDS011;3183;51.010;6.898;2023-04-24T13:21:11;6.40;;;2.90;;
6300;SDS011;3183;51.010;6.898;2023-04-24T13:23:38;11.43;;;2.77;;
6300;SDS011;3183;51.010;6.898;2023-04-24T13:26:07;9.33;;;3.00;;
6300;SDS011;3183;51.010;6.898;2023-04-24T13:28:34;13.53;;;2.50;;
6300;SDS011;3183;51.010;6.898;2023-04-24T13:31:03;4.47;;;2.47;;
6300;SDS011;3183;51.010;6.898;2023-04-24T13:33:31;5.97;;;2.67;;
6300;SDS011;3183;51.010;6.898;2023-04-24T13:35:58;7.43;;;2.93;;
6300;SDS011;3183;51.010;6.898;2023-04-24T13:38:25;8.23;;;2.60;;
6300;SDS011;3183;51.010;6.898;2023-04-24T13:40:52;9.57;;;3.60;;
6300;SDS011;3183;51.010;6.898;2023-04-24T13:43:21;11.77;;;3.20;;
6300;SDS011;3183;51.010;6.898;2023-04-24T13:45:48;11.00;;;3.50;;
6300;SDS011;3183;51.010;6.898;2023-04-24T13:48:15;7.63;;;2.87;;
6300;SDS011;3183;51.010;6.898;2023-04-24T13:50:43;7.70;;;3.00;;
6300;SDS011;3183;51.010;6.898;2023-04-24T13:53:13;9.40;;;3.27;;
6300;SDS011;3183;51.010;6.898;2023-04-24T13:55:40;4.20;;;2.57;;
6300;SDS011;3183;51.010;6.898;2023-04-24T13:58:07;6.25;;;3.20;;
6300;SDS011;3183;51.010;6.898;2023-04-24T14:00:36;6.37;;;2.70;;
6300;SDS011;3183;51.010;6.898;2023-04-24T14:03:04;7.03;;;3.80;;
6300;SDS011;3183;51.010;6.898;2023-04-24T14:05:31;11.73;;;3.40;;
6300;SDS011;3183;51.010;6.898;2023-04-24T14:07:58;4.77;;;2.60;;
6300;SDS011;3183;51.010;6.898;2023-04-24T14:10:25;9.20;;;3.40;;
6300;SDS011;3183;51.010;6.898;2023-04-24T14:12:53;11.90;;;3.53;;
6300;SDS011;3183;51.010;6.898;2023-04-24T14:15:20;5.25;;;3.58;;
6300;SDS011;3183;51.010;6.898;2023-04-24T14:17:48;6.20;;;3.10;;
6300;SDS011;3183;51.010;6.898;2023-04-24T14:20:16;11.37;;;3.23;;
6300;SDS011;3183;51.010;6.898;2023-04-24T14:22:43;8.63;;;3.53;;
6300;SDS011;3183;51.010;6.898;2023-04-24T14:25:10;10.40;;;2.90;;
6300;SDS011;3183;51.010;6.898;2023-04-24T14:27:38;10.30;;;3.77;;
6300;SDS011;3183;51.010;6.898;2023-04-24T14:30:05;8.20;;;3.60;;
6300;SDS011;3183;51.010;6.898;2023-04-24T14:32:33;9.73;;;3.20;;
6300;SDS011;3183;51.010;6.898;2023-04-24T14:35:02;5.93;;;3.23;;
6300;SDS011;3183;51.010;6.898;2023-04-24T14:37:29;8.13;;;3.53;;
6300;SDS011;3183;51.010;6.898;2023-04-24T14:39:56;7.50;;;3.40;;
6300;SDS011;3183;51.010;6.898;2023-04-24T14:42:24;10.27;;;3.43;;
6300;SDS011;3183;51.010;6.898;2023-04-24T14:44:51;7.57;;;3.70;;
6300;SDS011;3183;51.010;6.898;2023-04-24T14:47:18;8.60;;;3.23;;
6300;SDS011;3183;51.010;6.898;2023-04-24T14:49:46;8.33;;;2.43;;
6300;SDS011;3183;51.010;6.898;2023-04-24T14:52:15;6.00;;;3.00;;
6300;SDS011;3183;51.010;6.898;2023-04-24T14:54:42;7.50;;;3.00;;
6300;SDS011;3183;51.010;6.898;2023-04-24T14:57:09;4.43;;;2.38;;
6300;SDS011;3183;51.010;6.898;2023-04-24T14:59:36;4.00;;;2.50;;
6300;SDS011;3183;51.010;6.898;2023-04-24T15:02:04;5.17;;;2.30;;
6300;SDS011;3183;51.010;6.898;2023-04-24T15:04:31;3.80;;;2.67;;
6300;SDS011;3183;51.010;6.898;2023-04-24T15:06:58;4.77;;;2.10;;
6300;SDS011;3183;51.010;6.898;2023-04-24T15:09:27;6.57;;;2.50;;
6300;SDS011;3183;51.010;6.898;2023-04-24T15:11:56;9.97;;;3.00;;
6300;SDS011;3183;51.010;6.898;2023-04-24T15:14:24;4.57;;;2.67;;
6300;SDS011;3183;51.010;6.898;2023-04-24T15:16:51;4.30;;;2.97;;
6300;SDS011;3183;51.010;6.898;2023-04-24T15:19:18;7.83;;;2.80;;
6300;SDS011;3183;51.010;6.898;2023-04-24T15:21:45;7.80;;;3.50;;
6300;SDS011;3183;51.010;6.898;2023-04-24T15:24:12;6.83;;;3.50;;
6300;SDS011;3183;51.010;6.898;2023-04-24T15:26:41;7.93;;;3.37;;
6300;SDS011;3183;51.010;6.898;2023-04-24T15:29:08;5.13;;;2.90;;
6300;SDS011;3183;51.010;6.898;2023-04-24T15:31:35;7.30;;;3.00;;
6300;SDS011;3183;51.010;6.898;2023-04-24T15:34:04;5.60;;;3.20;;
6300;SDS011;3183;51.010;6.898;2023-04-24T15:36:31;2.45;;;2.10;;
6300;SDS011;3183;51.010;6.898;2023-04-24T15:38:59;6.00;;;3.03;;
6300;SDS011;3183;51.010;6.898;2023-04-24T15:41:27;7.00;;;3.05;;
6300;SDS011;3183;51.010;6.898;2023-04-24T15:43:56;5.03;;;2.60;;
6300;SDS011;3183;51.010;6.898;2023-04-24T15:46:23;5.07;;;3.13;;
6300;SDS011;3183;51.010;6.898;2023-04-24T15:48:50;8.30;;;3.00;;
6300;SDS011;3183;51.010;6.898;2023-04-24T15:51:17;7.50;;;2.40;;
6300;SDS011;3183;51.010;6.898;2023-04-24T15:53:44;8.03;;;2.93;;
6300;SDS011;3183;51.010;6.898;2023-04-24T15:56:12;5.00;;;2.90;;
6300;SDS011;3183;51.010;6.898;2023-04-24T15:58:39;7.47;;;3.20;;
6300;SDS011;3183;51.010;6.898;2023-04-24T16:01:08;8.60;;;2.50;;
6300;SDS011;3183;51.010;6.898;2023-04-24T16:03:35;4.75;;;2.38;;
6300;SDS011;3183;51.010;6.898;2023-04-24T16:06:02;8.50;;;3.07;;
6300;SDS011;3183;51.010;6.898;2023-04-24T16:08:29;6.37;;;2.67;;
6300;SDS011;3183;51.010;6.898;2023-04-24T16:10:56;6.60;;;2.53;;
6300;SDS011;3183;51.010;6.898;2023-04-24T16:13:23;7.17;;;2.90;;
6300;SDS011;3183;51.010;6.898;2023-04-24T16:15:53;7.60;;;3.00;;
6300;SDS011;3183;51.010;6.898;2023-04-24T16:18:21;5.53;;;3.10;;
6300;SDS011;3183;51.010;6.898;2023-04-24T16:20:48;4.20;;;2.70;;
6300;SDS011;3183;51.010;6.898;2023-04-24T16:23:16;5.67;;;2.90;;
6300;SDS011;3183;51.010;6.898;2023-04-24T16:25:43;6.60;;;3.13;;
6300;SDS011;3183;51.010;6.898;2023-04-24T16:28:10;4.73;;;2.97;;
6300;SDS011;3183;51.010;6.898;2023-04-24T16:30:38;2.90;;;2.60;;
6300;SDS011;3183;51.010;6.898;2023-04-24T16:33:05;2.70;;;2.30;;
6300;SDS011;3183;51.010;6.898;2023-04-24T16:35:36;4.97;;;2.50;;
6300;SDS011;3183;51.010;6.898;2023-04-24T16:38:03;8.00;;;2.80;;
6300;SDS011;3183;51.010;6.898;2023-04-24T16:40:30;5.23;;;2.80;;
6300;SDS011;3183;51.010;6.898;2023-04-24T16:42:57;1.77;;;1.67;;
6300;SDS011;3183;51.010;6.898;2023-04-24T16:45:25;7.93;;;2.53;;
6300;SDS011;3183;51.010;6.898;2023-04-24T16:47:52;3.63;;;2.23;;
6300;SDS011;3183;51.010;6.898;2023-04-24T16:50:19;3.93;;;2.00;;
6300;SDS011;3183;51.010;6.898;2023-04-24T16:52:48;5.30;;;2.20;;
6300;SDS011;3183;51.010;6.898;2023-04-24T16:55:15;2.83;;;1.83;;
6300;SDS011;3183;51.010;6.898;2023-04-24T16:57:42;9.50;;;2.40;;
6300;SDS011;3183;51.010;6.898;2023-04-24T17:00:10;4.20;;;1.77;;
6300;SDS011;3183;51.010;6.898;2023-04-24T17:02:37;4.00;;;1.90;;
6300;SDS011;3183;51.010;6.898;2023-04-24T17:05:04;7.30;;;2.20;;
6300;SDS011;3183;51.010;6.898;2023-04-24T17:07:32;6.97;;;2.07;;
6300;SDS011;3183;51.010;6.898;2023-04-24T17:10:00;2.80;;;1.93;;
6300;SDS011;3183;51.010;6.898;2023-04-24T17:12:28;5.70;;;2.00;;
6300;SDS011;3183;51.010;6.898;2023-04-24T17:14:55;8.77;;;2.10;;
6300;SDS011;3183;51.010;6.898;2023-04-24T17:17:22;3.57;;;1.83;;
6300;SDS011;3183;51.010;6.898;2023-04-24T17:19:49;3.90;;;1.80;;
6300;SDS011;3183;51.010;6.898;2023-04-24T17:22:16;3.13;;;2.03;;
6300;SDS011;3183;51.010;6.898;2023-04-24T17:24:43;4.77;;;2.00;;
6300;SDS011;3183;51.010;6.898;2023-04-24T17:27:12;3.73;;;2.13;;
6300;SDS011;3183;51.010;6.898;2023-04-24T17:29:39;7.60;;;2.40;;
6300;SDS011;3183;51.010;6.898;2023-04-24T17:32:06;10.73;;;3.13;;
6300;SDS011;3183;51.010;6.898;2023-04-24T17:34:33;3.07;;;1.77;;
6300;SDS011;3183;51.010;6.898;2023-04-24T17:37:00;10.30;;;1.93;;
6300;SDS011;3183;51.010;6.898;2023-04-24T17:39:28;4.50;;;1.93;;
6300;SDS011;3183;51.010;6.898;2023-04-24T17:41:55;6.50;;;2.00;;
6300;SDS011;3183;51.010;6.898;2023-04-24T17:44:24;5.57;;;2.43;;
6300;SDS011;3183;51.010;6.898;2023-04-24T17:46:51;3.10;;;1.67;;
6300;SDS011;3183;51.010;6.898;2023-04-24T17:49:19;3.58;;;1.65;;
6300;SDS011;3183;51.010;6.898;2023-04-24T17:51:46;2.70;;;1.50;;
6300;SDS011;3183;51.010;6.898;2023-04-24T17:54:14;7.03;;;2.13;;
6300;SDS011;3183;51.010;6.898;2023-04-24T17:56:41;6.28;;;2.05;;
6300;SDS011;3183;51.010;6.898;2023-04-24T17:59:08;2.30;;;1.50;;
6300;SDS011;3183;51.010;6.898;2023-04-24T18:01:36;3.03;;;1.60;;
6300;SDS011;3183;51.010;6.898;2023-04-24T18:04:03;4.33;;;1.50;;
6300;SDS011;3183;51.010;6.898;2023-04-24T18:06:30;2.43;;;1.50;;
6300;SDS011;3183;51.010;6.898;2023-04-24T18:08:58;3.00;;;1.53;;
6300;SDS011;3183;51.010;6.898;2023-04-24T18:11:25;6.57;;;2.10;;
6300;SDS011;3183;51.010;6.898;2023-04-24T18:13:53;5.87;;;2.37;;
6300;SDS011;3183;51.010;6.898;2023-04-24T18:16:20;2.40;;;1.43;;
6300;SDS011;3183;51.010;6.898;2023-04-24T18:18:48;4.00;;;1.83;;
6300;SDS011;3183;51.010;6.898;2023-04-24T18:21:15;3.95;;;1.52;;
6300;SDS011;3183;51.010;6.898;2023-04-24T18:23:42;2.47;;;1.80;;
6300;SDS011;3183;51.010;6.898;2023-04-24T18:26:10;6.90;;;1.63;;
6300;SDS011;3183;51.010;6.898;2023-04-24T18:28:40;5.20;;;2.30;;
6300;SDS011;3183;51.010;6.898;2023-04-24T18:31:08;8.50;;;2.23;;
6300;SDS011;3183;51.010;6.898;2023-04-24T18:33:35;6.67;;;2.30;;
6300;SDS011;3183;51.010;6.898;2023-04-24T18:36:03;8.13;;;1.83;;
6300;SDS011;3183;51.010;6.898;2023-04-24T18:38:30;2.57;;;1.60;;
6300;SDS011;3183;51.010;6.898;2023-04-24T18:40:58;4.50;;;1.80;;